Time;durP1;ratioP1;P1;durP2;ratioP2;P2;SDS_P1;SDS_P2;PMS_P1;PMS_P2;Temp;Humidity;BMP_temperature;BMP_pressure;BME280_temperature;BME280_humidity;BME280_pressure;Samples;Min_cycle;Max_cycle;Signal;HPM_P1;HPM_P2
2023/11/12 00:02:02;;;;;;;12.13;5.87;;;;;;;;;;6210262;23;20166;-92
2023/11/12 00:05:08;;;;;;;9.50;4.40;;;;;;;;;;6209903;23;20211;-88
2023/11/12 00:08:14;;;;;;;8.07;4.30;;;;;;;;;;6209284;23;20265;-89
2023/11/12 00:11:19;;;;;;;8.03;4.40;;;;;;;;;;6209397;23;20187;-88
2023/11/12 00:14:25;;;;;;;6.67;3.93;;;;;;;;;;6208851;23;20168;-90
2023/11/12 00:17:31;;;;;;;9.40;3.80;;;;;;;;;;6209335;23;20171;-92
2023/11/12 00:20:36;;;;;;;6.00;3.33;;;;;;;;;;6209788;23;20657;-88
2023/11/12 00:23:44;;;;;;;8.20;4.10;;;;;;;;;;6210382;23;20163;-91
2023/11/12 00:26:49;;;;;;;7.73;4.03;;;;;;;;;;6211729;23;20171;-89
2023/11/12 00:29:55;;;;;;;25.73;12.33;;;;;;;;;;6209787;23;20159;-92
2023/11/12 00:33:01;;;;;;;10.53;4.47;;;;;;;;;;6210096;23;20248;-89
2023/11/12 00:36:06;;;;;;;9.90;4.80;;;;;;;;;;6212502;22;20162;-92
2023/11/12 00:39:11;;;;;;;8.17;4.13;;;;;;;;;;6210996;23;20210;-92
2023/11/12 00:42:17;;;;;;;10.40;4.30;;;;;;;;;;6209905;23;20167;-92
2023/11/12 00:45:22;;;;;;;12.97;4.37;;;;;;;;;;6209901;23;20588;-91
2023/11/12 00:48:29;;;;;;;7.47;4.50;;;;;;;;;;6208673;23;20224;-89
2023/11/12 00:51:34;;;;;;;10.80;4.37;;;;;;;;;;6210278;22;20194;-90
2023/11/12 00:54:39;;;;;;;9.73;4.70;;;;;;;;;;6209349;23;20293;-91
2023/11/12 00:57:44;;;;;;;6.83;3.93;;;;;;;;;;6210592;23;20240;-89
2023/11/12 01:00:50;;;;;;;7.70;4.10;;;;;;;;;;6209950;23;20171;-90
2023/11/12 01:03:56;;;;;;;8.40;4.20;;;;;;;;;;6208317;23;20163;-90
2023/11/12 01:07:02;;;;;;;9.27;3.83;;;;;;;;;;6208749;22;20309;-90
2023/11/12 01:10:07;;;;;;;9.00;4.10;;;;;;;;;;6208436;23;20179;-92
2023/11/12 01:13:13;;;;;;;10.87;4.23;;;;;;;;;;6208595;23;20265;-88
2023/11/12 01:16:18;;;;;;;9.20;4.70;;;;;;;;;;6209931;23;20166;-91
2023/11/12 01:19:25;;;;;;;10.77;4.30;;;;;;;;;;6209397;23;20254;-88
2023/11/12 01:22:30;;;;;;;24.90;11.90;;;;;;;;;;6210277;23;20163;-93
2023/11/12 01:25:35;;;;;;;11.30;5.00;;;;;;;;;;6212076;22;20164;-92
2023/11/12 01:28:40;;;;;;;9.13;4.50;;;;;;;;;;6212787;23;20279;-89
2023/11/12 01:31:46;;;;;;;9.33;4.67;;;;;;;;;;6209725;23;20658;-94
2023/11/12 01:34:52;;;;;;;9.40;4.80;;;;;;;;;;6210505;23;20151;-93
2023/11/12 01:37:58;;;;;;;9.87;4.43;;;;;;;;;;6208366;23;20175;-90
2023/11/12 01:41:04;;;;;;;8.60;4.37;;;;;;;;;;6210638;22;20163;-91
2023/11/12 01:44:09;;;;;;;10.23;4.77;;;;;;;;;;6209497;23;20167;-90
2023/11/12 01:47:14;;;;;;;11.77;4.87;;;;;;;;;;6208521;23;20245;-89
2023/11/12 01:50:21;;;;;;;8.70;4.90;;;;;;;;;;6209320;23;20227;-90
2023/11/12 01:53:26;;;;;;;8.17;4.60;;;;;;;;;;6210148;22;20191;-90
2023/11/12 01:56:33;;;;;;;9.27;5.30;;;;;;;;;;6209933;23;20210;-89
2023/11/12 01:59:39;;;;;;;9.33;5.03;;;;;;;;;;6208822;23;20633;-89
2023/11/12 02:02:44;;;;;;;10.50;5.30;;;;;;;;;;6210602;23;20239;-91
2023/11/12 02:05:51;;;;;;;9.90;5.37;;;;;;;;;;6209959;23;20166;-89
2023/11/12 02:08:57;;;;;;;10.13;5.43;;;;;;;;;;6208865;23;20190;-90
2023/11/12 02:12:02;;;;;;;12.47;6.07;;;;;;;;;;6209861;23;20289;-91
2023/11/12 02:15:07;;;;;;;10.50;5.87;;;;;;;;;;6209993;23;20218;-89
2023/11/12 02:18:13;;;;;;;12.37;6.07;;;;;;;;;;6210729;22;20231;-93
2023/11/12 02:21:25;;;;;;;11.27;5.93;;;;;;;;;;6209338;23;20170;-93
2023/11/12 02:24:31;;;;;;;10.37;5.97;;;;;;;;;;6207671;23;20167;-88
2023/11/12 02:27:37;;;;;;;12.77;6.47;;;;;;;;;;6210171;23;20179;-92
2023/11/12 02:30:43;;;;;;;12.07;6.37;;;;;;;;;;6208299;23;20303;-90
2023/11/12 02:33:49;;;;;;;13.23;6.47;;;;;;;;;;6209458;23;20194;-90
2023/11/12 02:36:53;;;;;;;13.07;6.60;;;;;;;;;;6208598;22;20171;-93
2023/11/12 02:40:00;;;;;;;11.47;5.53;;;;;;;;;;6207730;23;20611;-94
2023/11/12 02:43:06;;;;;;;9.60;5.40;;;;;;;;;;6209791;23;20250;-89
2023/11/12 02:46:12;;;;;;;11.50;5.83;;;;;;;;;;6208030;22;20167;-87
2023/11/12 02:49:28;;;;;;;11.10;5.57;;;;;;;;;;6210191;22;20195;-89
2023/11/12 02:52:33;;;;;;;10.83;5.57;;;;;;;;;;6209004;23;20195;-91
2023/11/12 02:55:40;;;;;;;9.67;5.27;;;;;;;;;;6208867;23;20260;-89
2023/11/12 02:58:45;;;;;;;8.47;4.87;;;;;;;;;;6207729;23;20602;-90
2023/11/12 03:01:50;;;;;;;7.57;4.60;;;;;;;;;;6207822;22;20175;-89
2023/11/12 03:04:56;;;;;;;8.37;4.73;;;;;;;;;;6208663;23;20210;-90
2023/11/12 03:08:01;;;;;;;8.83;4.90;;;;;;;;;;6208509;23;20195;-89
2023/11/12 03:11:09;;;;;;;9.50;3.97;;;;;;;;;;6207676;23;20179;-90
2023/11/12 03:14:16;;;;;;;8.70;4.20;;;;;;;;;;6207297;23;20152;-89
2023/11/12 03:17:21;;;;;;;10.43;4.90;;;;;;;;;;6211002;22;20179;-91
2023/11/12 03:20:26;;;;;;;11.50;4.90;;;;;;;;;;6209906;23;20587;-88
2023/11/12 03:23:32;;;;;;;10.83;4.90;;;;;;;;;;6210768;23;20167;-91
2023/11/12 03:26:39;;;;;;;9.40;4.27;;;;;;;;;;6210246;23;20222;-92
2023/11/12 03:29:44;;;;;;;8.50;4.80;;;;;;;;;;6209427;22;20236;-88
2023/11/12 03:32:49;;;;;;;9.03;3.97;;;;;;;;;;6209904;22;20670;-91
2023/11/12 03:35:55;;;;;;;10.40;4.23;;;;;;;;;;6209686;23;20163;-89
2023/11/12 03:39:01;;;;;;;8.03;3.73;;;;;;;;;;6210013;23;20166;-88
2023/11/12 03:42:09;;;;;;;7.27;3.77;;;;;;;;;;6210140;23;20191;-92
2023/11/12 03:45:15;;;;;;;9.37;4.07;;;;;;;;;;6210446;22;20155;-89
2023/11/12 03:48:19;;;;;;;13.10;5.00;;;;;;;;;;6211723;22;20206;-89
2023/11/12 03:51:24;;;;;;;8.47;4.33;;;;;;;;;;6211381;23;20168;-92
2023/11/12 03:54:30;;;;;;;23.90;9.13;;;;;;;;;;6211652;23;20206;-89
2023/11/12 03:57:36;;;;;;;9.33;4.70;;;;;;;;;;6210148;23;20168;-89
2023/11/12 04:00:42;;;;;;;10.93;4.60;;;;;;;;;;6209555;23;20214;-90
2023/11/12 04:03:47;;;;;;;7.73;4.10;;;;;;;;;;6210022;23;20169;-89
2023/11/12 04:06:53;;;;;;;9.37;4.00;;;;;;;;;;6210338;23;20194;-90
2023/11/12 04:09:57;;;;;;;7.00;3.57;;;;;;;;;;6210591;23;20190;-90
2023/11/12 04:13:06;;;;;;;8.77;4.37;;;;;;;;;;6210111;23;20194;-88
2023/11/12 04:16:12;;;;;;;9.13;4.40;;;;;;;;;;6208679;23;20598;-90
2023/11/12 04:19:17;;;;;;;8.93;4.47;;;;;;;;;;6210438;22;20155;-89
2023/11/12 04:22:23;;;;;;;14.03;4.93;;;;;;;;;;6209973;23;20615;-90
2023/11/12 04:25:28;;;;;;;10.20;3.80;;;;;;;;;;6208901;23;20175;-87
2023/11/12 04:28:35;;;;;;;8.23;3.70;;;;;;;;;;6208709;23;20167;-88
2023/11/12 04:31:40;;;;;;;5.77;3.27;;;;;;;;;;6208323;23;20287;-88
2023/11/12 04:34:46;;;;;;;7.40;3.73;;;;;;;;;;6208444;23;20219;-88
2023/11/12 04:37:51;;;;;;;5.73;3.53;;;;;;;;;;6210823;23;20160;-90
2023/11/12 04:40:57;;;;;;;8.07;3.70;;;;;;;;;;6209125;23;20183;-90
2023/11/12 04:48:19;;;;;;;7.07;3.40;;;;;;;;;;6227456;23;20176;-90
2023/11/12 04:51:24;;;;;;;7.37;3.73;;;;;;;;;;6207838;23;20166;-90
2023/11/12 04:54:30;;;;;;;7.67;3.80;;;;;;;;;;6210162;22;20187;-89
2023/11/12 04:57:35;;;;;;;6.57;3.80;;;;;;;;;;6208986;23;20243;-91
2023/11/12 05:00:40;;;;;;;7.30;3.73;;;;;;;;;;6208527;23;20166;-90
2023/11/12 05:03:47;;;;;;;7.90;4.27;;;;;;;;;;6209264;22;20170;-88
2023/11/12 05:06:52;;;;;;;8.43;3.73;;;;;;;;;;6209676;23;20620;-92
2023/11/12 05:09:57;;;;;;;9.53;5.43;;;;;;;;;;6209273;23;20170;-88
2023/11/12 05:13:02;;;;;;;8.80;4.30;;;;;;;;;;6209256;23;20693;-88
2023/11/12 05:16:07;;;;;;;6.53;3.63;;;;;;;;;;6208189;23;20179;-86
2023/11/12 05:19:14;;;;;;;7.13;3.80;;;;;;;;;;6209714;23;20171;-90
2023/11/12 05:22:20;;;;;;;10.30;4.97;;;;;;;;;;6209106;23;20166;-89
2023/11/12 05:25:24;;;;;;;8.57;4.43;;;;;;;;;;6212204;23;20252;-91
2023/11/12 05:28:29;;;;;;;8.57;4.60;;;;;;;;;;6208918;23;20194;-89
2023/11/12 05:31:35;;;;;;;10.43;4.70;;;;;;;;;;6207488;23;20499;-90
2023/11/12 05:34:41;;;;;;;10.37;5.30;;;;;;;;;;6206951;23;20155;-89
2023/11/12 05:37:47;;;;;;;11.43;5.43;;;;;;;;;;6208105;23;20171;-90
2023/11/12 05:40:52;;;;;;;9.70;5.50;;;;;;;;;;6207639;23;20171;-90
2023/11/12 05:43:58;;;;;;;8.80;5.17;;;;;;;;;;6208246;23;20684;-88
2023/11/12 05:47:02;;;;;;;9.33;5.70;;;;;;;;;;6207803;23;20226;-90
2023/11/12 05:50:12;;;;;;;11.23;5.20;;;;;;;;;;6207377;23;20171;-89
2023/11/12 05:53:18;;;;;;;12.33;5.73;;;;;;;;;;6208417;23;20191;-90
2023/11/12 05:56:23;;;;;;;11.20;6.00;;;;;;;;;;6209176;23;20167;-89
2023/11/12 05:59:28;;;;;;;7.80;4.30;;;;;;;;;;6209264;23;20171;-90
2023/11/12 06:02:33;;;;;;;6.67;4.10;;;;;;;;;;6207789;23;20219;-90
2023/11/12 06:05:41;;;;;;;13.30;4.80;;;;;;;;;;6208124;23;20170;-89
2023/11/12 06:08:46;;;;;;;8.23;4.50;;;;;;;;;;6207207;22;20263;-91
2023/11/12 06:11:53;;;;;;;13.53;4.60;;;;;;;;;;6206985;23;20606;-89
2023/11/12 06:14:58;;;;;;;9.10;4.37;;;;;;;;;;6208574;23;20167;-91
2023/11/12 06:18:03;;;;;;;8.13;4.23;;;;;;;;;;6207324;23;20306;-89
2023/11/12 06:21:10;;;;;;;8.20;4.43;;;;;;;;;;6208426;22;20171;-88
2023/11/12 06:24:14;;;;;;;9.57;5.13;;;;;;;;;;6209125;23;20167;-91
2023/11/12 06:27:19;;;;;;;8.10;4.70;;;;;;;;;;6207913;23;20170;-91
2023/11/12 06:30:25;;;;;;;7.03;4.67;;;;;;;;;;6207620;23;20166;-89
2023/11/12 06:33:30;;;;;;;8.23;4.53;;;;;;;;;;6206918;23;20661;-90
2023/11/12 06:36:36;;;;;;;9.60;4.77;;;;;;;;;;6206381;23;20548;-91
2023/11/12 06:39:41;;;;;;;7.93;4.33;;;;;;;;;;6208276;23;20243;-93
2023/11/12 06:42:46;;;;;;;9.87;5.37;;;;;;;;;;6207135;23;20174;-89
2023/11/12 06:45:52;;;;;;;10.73;5.60;;;;;;;;;;6209685;23;20167;-88
2023/11/12 06:48:57;;;;;;;12.70;5.73;;;;;;;;;;6208461;23;20166;-89
2023/11/12 06:52:04;;;;;;;9.57;4.70;;;;;;;;;;6210775;22;20217;-92
2023/11/12 06:55:10;;;;;;;9.00;4.70;;;;;;;;;;6211721;23;20162;-90
2023/11/12 06:58:15;;;;;;;7.33;4.10;;;;;;;;;;6211108;23;20172;-88
2023/11/12 07:01:20;;;;;;;11.23;4.90;;;;;;;;;;6210730;23;20246;-88
2023/11/12 07:04:26;;;;;;;9.90;6.13;;;;;;;;;;6212639;22;20167;-89
2023/11/12 07:07:33;;;;;;;11.03;6.27;;;;;;;;;;6211053;23;20190;-89
2023/11/12 07:10:38;;;;;;;8.23;4.73;;;;;;;;;;6208049;23;20217;-91
2023/11/12 07:13:43;;;;;;;9.87;5.00;;;;;;;;;;6212859;22;20206;-92
2023/11/12 07:16:48;;;;;;;8.87;4.70;;;;;;;;;;6209141;23;20167;-88
2023/11/12 07:19:55;;;;;;;11.53;5.23;;;;;;;;;;6209251;23;20195;-91
2023/11/12 07:23:02;;;;;;;9.90;5.13;;;;;;;;;;6208968;23;20175;-91
2023/11/12 07:26:08;;;;;;;11.33;6.50;;;;;;;;;;6210875;23;20167;-88
2023/11/12 07:29:14;;;;;;;12.60;6.67;;;;;;;;;;6211599;22;20183;-90
2023/11/12 07:32:20;;;;;;;13.53;7.33;;;;;;;;;;6211455;23;20171;-92
2023/11/12 07:35:28;;;;;;;20.77;8.17;;;;;;;;;;6212736;23;20179;-88
2023/11/12 07:38:35;;;;;;;13.37;7.57;;;;;;;;;;6213498;23;20611;-90
2023/11/12 07:41:40;;;;;;;36.17;8.67;;;;;;;;;;6212221;23;20240;-91
2023/11/12 07:44:45;;;;;;;27.97;7.73;;;;;;;;;;6214255;22;20235;-92
2023/11/12 07:47:51;;;;;;;16.77;6.43;;;;;;;;;;6212613;23;20653;-89
2023/11/12 07:50:58;;;;;;;24.00;6.30;;;;;;;;;;6213146;22;20242;-91
2023/11/12 07:54:05;;;;;;;12.90;6.90;;;;;;;;;;6212513;23;20771;-89
2023/11/12 07:57:10;;;;;;;14.97;7.90;;;;;;;;;;6214622;23;20167;-90
2023/11/12 08:00:16;;;;;;;19.33;7.27;;;;;;;;;;6212143;22;20600;-89
2023/11/12 08:03:22;;;;;;;16.43;7.80;;;;;;;;;;6212561;22;20150;-90
2023/11/12 08:06:28;;;;;;;15.70;7.93;;;;;;;;;;6213127;23;20171;-90
2023/11/12 08:09:36;;;;;;;14.83;7.23;;;;;;;;;;6213737;23;20171;-90
2023/11/12 08:12:43;;;;;;;18.77;7.40;;;;;;;;;;6211655;23;20167;-90
2023/11/12 08:15:48;;;;;;;18.50;8.53;;;;;;;;;;6215254;22;20163;-90
2023/11/12 08:18:54;;;;;;;15.70;7.87;;;;;;;;;;6213302;22;20164;-90
2023/11/12 08:22:02;;;;;;;13.57;7.33;;;;;;;;;;6211982;23;20497;-92
2023/11/12 08:25:10;;;;;;;15.03;8.43;;;;;;;;;;6211911;23;20171;-89
2023/11/12 08:28:16;;;;;;;15.30;8.90;;;;;;;;;;6210658;23;20286;-90
2023/11/12 08:31:21;;;;;;;21.50;10.03;;;;;;;;;;6211936;23;20163;-91
2023/11/12 08:34:26;;;;;;;15.93;8.03;;;;;;;;;;6209845;22;20315;-89
2023/11/12 08:37:31;;;;;;;20.53;9.57;;;;;;;;;;6212350;23;20167;-89
2023/11/12 08:40:41;;;;;;;15.33;8.53;;;;;;;;;;6213230;23;20171;-89
2023/11/12 08:43:47;;;;;;;13.63;7.73;;;;;;;;;;6211350;23;20171;-87
2023/11/12 08:46:52;;;;;;;14.63;8.47;;;;;;;;;;6213508;22;20151;-89
2023/11/12 08:49:58;;;;;;;14.47;7.97;;;;;;;;;;6213601;23;20187;-92
2023/11/12 08:53:05;;;;;;;16.07;8.30;;;;;;;;;;6215665;23;20516;-89
2023/11/12 08:56:14;;;;;;;11.97;7.43;;;;;;;;;;6213819;23;20243;-91
2023/11/12 08:59:20;;;;;;;13.67;7.20;;;;;;;;;;6212934;23;20168;-88
2023/11/12 09:02:27;;;;;;;17.83;8.47;;;;;;;;;;6216689;23;20159;-89
2023/11/12 09:05:34;;;;;;;12.90;7.30;;;;;;;;;;6216139;23;20171;-88
2023/11/12 09:08:40;;;;;;;13.70;7.87;;;;;;;;;;6216795;23;20211;-90
2023/11/12 09:11:47;;;;;;;16.00;7.60;;;;;;;;;;6215421;23;20168;-89
2023/11/12 09:14:53;;;;;;;12.50;6.83;;;;;;;;;;6216218;23;20232;-88
2023/11/12 09:18:03;;;;;;;11.50;7.50;;;;;;;;;;6216380;22;20244;-89
2023/11/12 09:21:09;;;;;;;12.97;7.13;;;;;;;;;;6219565;23;20176;-89
2023/11/12 09:24:16;;;;;;;12.13;6.23;;;;;;;;;;6219883;23;20665;-88
2023/11/12 09:27:32;;;;;;;10.67;6.30;;;;;;;;;;6219232;23;20618;-90
2023/11/12 09:30:38;;;;;;;10.17;6.13;;;;;;;;;;6217019;22;20241;-89
2023/11/12 09:33:45;;;;;;;14.30;8.00;;;;;;;;;;6200276;23;20230;-90
2023/11/12 09:36:52;;;;;;;11.93;5.70;;;;;;;;;;6218416;23;20222;-92
2023/11/12 09:39:58;;;;;;;9.60;5.07;;;;;;;;;;6216660;23;20183;-91
2023/11/12 09:43:05;;;;;;;8.83;5.57;;;;;;;;;;6216641;22;20196;-91
2023/11/12 09:46:11;;;;;;;9.77;5.10;;;;;;;;;;6212869;23;20199;-90
2023/11/12 09:49:17;;;;;;;7.87;5.10;;;;;;;;;;6215490;23;20155;-92
2023/11/12 09:52:23;;;;;;;10.95;5.32;;;;;;;;;;6198065;23;20212;-91
2023/11/12 09:55:28;;;;;;;10.40;4.60;;;;;;;;;;6215362;23;20242;-89
2023/11/12 09:58:37;;;;;;;7.88;4.10;;;;;;;;;;6214924;22;20208;-90
2023/11/12 10:01:43;;;;;;;8.73;4.15;;;;;;;;;;6215323;23;20186;-91
2023/11/12 10:04:57;;;;;;;9.85;4.63;;;;;;;;;;6214832;23;20171;-87
2023/11/12 10:08:04;;;;;;;9.00;4.70;;;;;;;;;;6214695;23;20250;-91
2023/11/12 10:11:20;;;;;;;8.02;4.35;;;;;;;;;;6214549;23;20164;-90
2023/11/12 10:14:27;;;;;;;8.10;4.25;;;;;;;;;;6215891;22;20206;-91
2023/11/12 10:17:33;;;;;;;6.72;3.67;;;;;;;;;;6214191;23;20254;-90
2023/11/12 10:20:39;;;;;;;10.05;3.85;;;;;;;;;;6213540;23;20218;-90
2023/11/12 10:23:45;;;;;;;7.43;4.03;;;;;;;;;;6215308;22;20175;-90
2023/11/12 10:26:50;;;;;;;6.47;3.75;;;;;;;;;;6215816;22;20171;-90
2023/11/12 10:29:59;;;;;;;7.60;4.40;;;;;;;;;;6216338;23;20182;-92
2023/11/12 10:33:27;;;;;;;6.68;3.80;;;;;;;;;;6211790;23;20505;-90
2023/11/12 10:36:32;;;;;;;7.57;3.70;;;;;;;;;;6211802;22;20183;-92
2023/11/12 10:39:40;;;;;;;8.98;4.07;;;;;;;;;;6214232;22;20210;-90
2023/11/12 10:42:47;;;;;;;7.30;3.58;;;;;;;;;;6213886;23;20227;-91
2023/11/12 10:45:58;;;;;;;4.93;3.00;;;;;;;;;;6214600;23;20171;-93
2023/11/12 10:49:39;;;;;;;19.67;7.07;;;;;;;;;;6219991;22;20175;-90
2023/11/12 10:52:44;;;;;;;9.55;3.63;;;;;;;;;;6213425;22;20171;-91
2023/11/12 10:55:52;;;;;;;5.90;2.80;;;;;;;;;;6214714;23;20199;-91
2023/11/12 10:59:04;;;;;;;5.05;2.50;;;;;;;;;;6215691;23;20163;-92
2023/11/12 11:02:28;;;;;;;5.63;2.45;;;;;;;;;;6231085;22;20155;-91
2023/11/12 11:05:35;;;;;;;4.28;2.30;;;;;;;;;;6211699;22;20183;-88
2023/11/12 11:08:41;;;;;;;10.95;2.25;;;;;;;;;;6212841;23;20190;-90
2023/11/12 11:11:49;;;;;;;10.13;2.65;;;;;;;;;;6209755;23;20692;-89
2023/11/12 11:14:54;;;;;;;7.13;2.78;;;;;;;;;;6208640;22;20195;-91
2023/11/12 11:18:03;;;;;;;5.97;2.78;;;;;;;;;;6210068;22;20255;-91
2023/11/12 11:21:13;;;;;;;9.40;3.00;;;;;;;;;;6210671;23;20171;-88
2023/11/12 11:24:43;;;;;;;3.45;2.42;;;;;;;;;;6210797;23;20179;-92
2023/11/12 11:27:50;;;;;;;5.75;2.55;;;;;;;;;;6211795;22;20170;-90
2023/11/12 11:31:11;;;;;;;6.32;2.25;;;;;;;;;;6211223;22;20164;-89
2023/11/12 11:34:19;;;;;;;4.07;2.50;;;;;;;;;;6210978;23;20191;-91
2023/11/12 11:37:24;;;;;;;3.97;2.53;;;;;;;;;;6215353;23;20169;-94
2023/11/12 11:40:30;;;;;;;7.90;2.67;;;;;;;;;;6212221;23;20167;-89
2023/11/12 11:43:37;;;;;;;5.25;2.40;;;;;;;;;;6213632;22;20171;-89
2023/11/12 11:47:06;;;;;;;3.83;2.67;;;;;;;;;;6215102;22;20249;-90
2023/11/12 11:50:31;;;;;;;4.43;2.40;;;;;;;;;;6213346;23;20199;-89
2023/11/12 11:53:41;;;;;;;4.95;2.22;;;;;;;;;;6214447;22;20197;-91
2023/11/12 12:00:13;;;;;;;5.78;2.17;;;;;;;;;;6215746;23;20206;-90
2023/11/12 12:03:19;;;;;;;3.28;2.30;;;;;;;;;;6215579;23;20167;-90
2023/11/12 12:06:27;;;;;;;6.10;2.35;;;;;;;;;;6213789;23;20529;-90
2023/11/12 12:09:44;;;;;;;3.38;1.95;;;;;;;;;;6211787;22;20235;-91
2023/11/12 12:12:49;;;;;;;3.78;1.70;;;;;;;;;;6212074;23;20179;-92
2023/11/12 12:15:55;;;;;;;3.53;2.00;;;;;;;;;;6214269;23;20709;-93
2023/11/12 12:19:01;;;;;;;5.88;1.90;;;;;;;;;;6212305;22;20175;-93
2023/11/12 12:22:06;;;;;;;3.63;2.22;;;;;;;;;;6214152;22;20166;-94
2023/11/12 12:25:15;;;;;;;7.75;2.88;;;;;;;;;;6215694;22;20292;-90
2023/11/12 12:28:26;;;;;;;5.28;2.45;;;;;;;;;;6233983;22;20172;-90
2023/11/12 12:31:31;;;;;;;4.85;2.20;;;;;;;;;;6212959;23;20175;-93
2023/11/12 12:34:41;;;;;;;7.97;2.33;;;;;;;;;;6214649;23;20242;-92
2023/11/12 12:37:46;;;;;;;6.00;2.67;;;;;;;;;;6211984;23;20171;-92
2023/11/12 12:41:02;;;;;;;4.95;2.33;;;;;;;;;;6214139;22;20171;-90
2023/11/12 12:44:22;;;;;;;6.95;2.22;;;;;;;;;;6212678;22;20166;-90
2023/11/12 12:47:41;;;;;;;7.40;2.10;;;;;;;;;;6213524;22;20166;-89
2023/11/12 12:50:47;;;;;;;4.65;2.58;;;;;;;;;;6212578;23;20498;-88
2023/11/12 12:53:55;;;;;;;4.97;2.28;;;;;;;;;;6215708;22;20175;-90
2023/11/12 12:57:03;;;;;;;6.55;2.38;;;;;;;;;;6212813;22;20183;-92
2023/11/12 13:00:11;;;;;;;7.90;2.13;;;;;;;;;;6214953;22;20151;-89
2023/11/12 13:03:26;;;;;;;3.45;2.00;;;;;;;;;;6214826;22;20167;-93
2023/11/12 13:06:31;;;;;;;4.82;2.33;;;;;;;;;;6212469;23;20171;-87
2023/11/12 13:09:39;;;;;;;4.55;2.30;;;;;;;;;;6211907;23;20205;-93
2023/11/12 13:12:51;;;;;;;4.95;2.67;;;;;;;;;;6212686;22;20159;-90
2023/11/12 13:15:58;;;;;;;4.50;2.40;;;;;;;;;;6214366;22;20195;-92
2023/11/12 13:19:04;;;;;;;6.60;2.35;;;;;;;;;;6212492;23;20167;-90
2023/11/12 13:22:10;;;;;;;4.40;2.20;;;;;;;;;;6212130;23;20258;-89
2023/11/12 13:25:15;;;;;;;7.45;2.67;;;;;;;;;;6212825;23;20155;-91
2023/11/12 13:28:23;;;;;;;4.53;2.47;;;;;;;;;;6213845;22;20175;-90
2023/11/12 13:31:31;;;;;;;5.55;2.35;;;;;;;;;;6215875;23;20179;-90
2023/11/12 13:34:36;;;;;;;6.80;2.70;;;;;;;;;;6214439;23;20218;-93
2023/11/12 13:37:45;;;;;;;5.93;2.88;;;;;;;;;;6210506;23;20193;-92
2023/11/12 13:40:51;;;;;;;3.70;2.53;;;;;;;;;;6213142;23;20176;-91
2023/11/12 13:43:58;;;;;;;6.38;3.28;;;;;;;;;;6210596;22;20241;-94
2023/11/12 13:47:05;;;;;;;5.60;2.80;;;;;;;;;;6211944;23;20554;-90
2023/11/12 13:50:13;;;;;;;9.43;2.40;;;;;;;;;;6211521;23;20253;-91
2023/11/12 13:53:20;;;;;;;3.33;2.20;;;;;;;;;;6211158;23;20171;-90
2023/11/12 13:56:26;;;;;;;5.28;2.75;;;;;;;;;;6213470;22;20194;-92
2023/11/12 13:59:36;;;;;;;4.68;2.40;;;;;;;;;;6214250;22;20622;-91
2023/11/12 14:02:42;;;;;;;6.10;2.47;;;;;;;;;;6213960;23;20757;-90
2023/11/12 14:05:46;;;;;;;4.63;2.10;;;;;;;;;;6213158;23;20266;-89
2023/11/12 14:08:51;;;;;;;4.68;2.22;;;;;;;;;;6212634;22;20179;-90
2023/11/12 14:11:57;;;;;;;7.50;2.80;;;;;;;;;;6213046;22;20191;-91
2023/11/12 14:15:09;;;;;;;4.35;2.60;;;;;;;;;;6217099;23;20202;-89
2023/11/12 14:18:14;;;;;;;6.25;2.70;;;;;;;;;;6216373;23;20275;-90
2023/11/12 14:21:20;;;;;;;6.50;3.10;;;;;;;;;;6213254;23;20502;-90
2023/11/12 14:24:25;;;;;;;3.58;2.30;;;;;;;;;;6214174;23;20159;-91
2023/11/12 14:27:31;;;;;;;7.95;2.70;;;;;;;;;;6210743;22;20179;-88
2023/11/12 14:30:40;;;;;;;5.70;2.70;;;;;;;;;;6212361;23;20319;-88
2023/11/12 14:33:45;;;;;;;6.95;3.08;;;;;;;;;;6210694;23;20241;-92
2023/11/12 14:36:51;;;;;;;4.93;2.55;;;;;;;;;;6210241;23;20272;-89
2023/11/12 14:39:58;;;;;;;5.97;2.47;;;;;;;;;;6210447;23;20162;-90
2023/11/12 14:43:10;;;;;;;3.53;2.10;;;;;;;;;;6213218;23;20168;-88
2023/11/12 14:46:20;;;;;;;5.70;2.22;;;;;;;;;;6210118;23;20246;-91
2023/11/12 14:49:31;;;;;;;5.70;2.97;;;;;;;;;;6211560;23;20171;-93
2023/11/12 14:52:41;;;;;;;3.90;2.30;;;;;;;;;;6212158;22;20198;-94
2023/11/12 14:55:49;;;;;;;3.25;2.25;;;;;;;;;;6211923;23;20194;-92
2023/11/12 14:58:55;;;;;;;5.47;2.42;;;;;;;;;;6212763;23;20164;-91
2023/11/12 15:02:02;;;;;;;5.18;2.60;;;;;;;;;;6211080;23;20167;-90
2023/11/12 15:05:08;;;;;;;4.22;2.92;;;;;;;;;;6213214;23;20278;-90
2023/11/12 15:08:15;;;;;;;7.57;3.72;;;;;;;;;;6213184;22;20202;-89
2023/11/12 15:11:20;;;;;;;14.25;5.40;;;;;;;;;;6212109;23;20186;-90
2023/11/12 15:14:26;;;;;;;7.05;3.15;;;;;;;;;;6212537;23;20512;-90
2023/11/12 15:17:32;;;;;;;8.70;3.17;;;;;;;;;;6213108;23;20167;-90
2023/11/12 15:20:54;;;;;;;3.75;2.40;;;;;;;;;;6213706;23;20155;-90
2023/11/12 15:24:06;;;;;;;4.80;2.50;;;;;;;;;;6216456;23;20212;-91
2023/11/12 15:27:12;;;;;;;9.50;2.42;;;;;;;;;;6211858;23;20271;-90
2023/11/12 15:30:19;;;;;;;8.27;3.17;;;;;;;;;;6212668;22;20172;-92
2023/11/12 15:33:25;;;;;;;5.28;2.40;;;;;;;;;;6214638;23;20171;-89
2023/11/12 15:36:34;;;;;;;9.05;2.50;;;;;;;;;;6213406;23;20191;-92
2023/11/12 15:39:47;;;;;;;5.95;2.65;;;;;;;;;;6216715;23;20171;-90
2023/11/12 15:42:54;;;;;;;8.73;2.75;;;;;;;;;;6212354;23;20259;-89
2023/11/12 15:46:00;;;;;;;6.65;2.80;;;;;;;;;;6211332;23;20174;-88
2023/11/12 15:49:07;;;;;;;6.47;3.10;;;;;;;;;;6212991;22;20218;-89
2023/11/12 15:52:13;;;;;;;6.40;3.13;;;;;;;;;;6212353;23;20179;-90
2023/11/12 15:55:18;;;;;;;15.50;6.00;;;;;;;;;;6213508;23;20158;-91
2023/11/12 15:58:24;;;;;;;17.83;6.43;;;;;;;;;;6211175;23;20159;-90
2023/11/12 16:01:32;;;;;;;18.87;8.23;;;;;;;;;;6213239;22;20159;-91
2023/11/12 16:04:40;;;;;;;22.27;8.13;;;;;;;;;;6212909;23;20167;-92
2023/11/12 16:07:45;;;;;;;19.93;6.73;;;;;;;;;;6213943;23;20246;-89
2023/11/12 16:10:51;;;;;;;16.53;5.70;;;;;;;;;;6215201;23;20167;-91
2023/11/12 16:18:25;;;;;;;15.87;6.20;;;;;;;;;;6233803;23;20178;-92
2023/11/12 16:21:48;;;;;;;28.80;9.57;;;;;;;;;;6213804;22;20175;-91
2023/11/12 16:24:57;;;;;;;44.53;14.13;;;;;;;;;;6217382;23;20230;-90
2023/11/12 16:28:03;;;;;;;27.20;8.40;;;;;;;;;;6217362;23;20206;-91
2023/11/12 16:31:09;;;;;;;23.70;8.00;;;;;;;;;;6215912;23;20183;-91
2023/11/12 16:34:15;;;;;;;21.67;7.73;;;;;;;;;;6214750;23;20166;-91
2023/11/12 16:37:21;;;;;;;19.80;7.70;;;;;;;;;;6215214;22;20175;-90
2023/11/12 16:40:28;;;;;;;27.97;9.90;;;;;;;;;;6212423;22;20168;-91
2023/11/12 16:43:35;;;;;;;11.90;5.13;;;;;;;;;;6211320;23;20214;-90
2023/11/12 16:46:41;;;;;;;11.67;5.27;;;;;;;;;;6215016;23;20159;-90
2023/11/12 16:49:47;;;;;;;18.83;8.60;;;;;;;;;;6213909;23;20215;-89
2023/11/12 16:52:54;;;;;;;16.10;6.80;;;;;;;;;;6212305;22;20259;-91
2023/11/12 16:56:01;;;;;;;13.97;6.53;;;;;;;;;;6210619;22;20464;-93
2023/11/12 16:59:07;;;;;;;12.97;6.57;;;;;;;;;;6212364;23;20211;-89
2023/11/12 17:02:13;;;;;;;19.57;9.97;;;;;;;;;;6212244;23;20151;-90
2023/11/12 17:05:22;;;;;;;15.87;7.83;;;;;;;;;;6213174;23;20167;-91
2023/11/12 17:08:29;;;;;;;13.33;6.53;;;;;;;;;;6214566;22;20174;-90
2023/11/12 17:11:36;;;;;;;21.93;8.10;;;;;;;;;;6212704;22;20726;-91
2023/11/12 17:14:41;;;;;;;13.17;6.43;;;;;;;;;;6214381;23;20167;-90
2023/11/12 17:17:51;;;;;;;13.37;7.63;;;;;;;;;;6214176;23;20202;-89
2023/11/12 17:20:57;;;;;;;18.93;8.83;;;;;;;;;;6214627;22;20765;-91
2023/11/12 17:24:08;;;;;;;16.07;7.33;;;;;;;;;;6214831;22;20163;-90
2023/11/12 17:27:25;;;;;;;14.13;6.30;;;;;;;;;;6214875;22;20221;-91
2023/11/12 17:30:49;;;;;;;14.17;5.87;;;;;;;;;;6210200;23;20164;-91
2023/11/12 17:33:56;;;;;;;15.43;6.50;;;;;;;;;;6208521;22;20176;-91
2023/11/12 17:37:01;;;;;;;15.67;7.37;;;;;;;;;;6209829;23;20198;-90
2023/11/12 17:40:07;;;;;;;23.33;8.60;;;;;;;;;;6209804;23;20191;-90
2023/11/12 17:43:14;;;;;;;15.70;7.53;;;;;;;;;;6210766;23;20170;-90
2023/11/12 17:46:19;;;;;;;18.90;7.97;;;;;;;;;;6210786;23;20151;-89
2023/11/12 17:49:24;;;;;;;18.53;7.60;;;;;;;;;;6211645;23;20183;-90
2023/11/12 17:52:31;;;;;;;16.47;7.10;;;;;;;;;;6209201;23;20179;-90
2023/11/12 17:56:00;;;;;;;15.23;6.80;;;;;;;;;;6210852;23;20314;-92
2023/11/12 17:59:08;;;;;;;15.93;7.70;;;;;;;;;;6206263;23;20159;-89
2023/11/12 18:02:19;;;;;;;25.50;8.57;;;;;;;;;;6206788;22;20178;-90
2023/11/12 18:05:48;;;;;;;18.30;8.10;;;;;;;;;;6227473;23;20209;-90
2023/11/12 18:08:55;;;;;;;19.13;8.83;;;;;;;;;;6205935;23;20187;-91
2023/11/12 18:12:00;;;;;;;22.83;9.97;;;;;;;;;;6209083;23;20170;-89
2023/11/12 18:15:12;;;;;;;23.70;9.40;;;;;;;;;;6206597;22;20492;-88
2023/11/12 18:18:18;;;;;;;19.83;8.93;;;;;;;;;;6207928;23;20167;-92
2023/11/12 18:21:24;;;;;;;18.30;9.07;;;;;;;;;;6208274;23;20196;-92
2023/11/12 18:24:30;;;;;;;20.00;9.23;;;;;;;;;;6214616;22;20166;-93
2023/11/12 18:27:41;;;;;;;34.27;12.63;;;;;;;;;;6218410;22;20216;-91
2023/11/12 18:30:59;;;;;;;33.53;13.37;;;;;;;;;;6215788;23;20224;-91
2023/11/12 18:37:28;;;;;;;21.53;10.20;;;;;;;;;;6211853;22;20191;-90
2023/11/12 18:40:46;;;;;;;13.30;6.80;;;;;;;;;;6217395;23;20174;-91
2023/11/12 18:43:52;;;;;;;14.60;6.87;;;;;;;;;;6212074;23;20171;-90
2023/11/12 18:46:59;;;;;;;16.30;7.37;;;;;;;;;;6211329;23;20174;-89
2023/11/12 18:50:05;;;;;;;15.10;7.30;;;;;;;;;;6209457;23;20166;-90
2023/11/12 18:53:13;;;;;;;14.50;7.00;;;;;;;;;;6213548;22;20184;-88